sensor_id;sensor_type;location;lat;lon;timestamp;P1;durP1;ratioP1;P2;durP2;ratioP2
50249;SDS011;36133;42.522;27.456;2023-03-23T00:01:10;4.40;;;3.20;;
50249;SDS011;36133;42.522;27.456;2023-03-23T00:03:44;5.43;;;3.63;;
50249;SDS011;36133;42.522;27.456;2023-03-23T00:06:11;4.18;;;2.50;;
50249;SDS011;36133;42.522;27.456;2023-03-23T00:08:42;3.78;;;2.88;;
50249;SDS011;36133;42.522;27.456;2023-03-23T00:11:20;4.07;;;2.78;;
50249;SDS011;36133;42.522;27.456;2023-03-23T00:13:47;5.13;;;3.08;;
50249;SDS011;36133;42.522;27.456;2023-03-23T00:16:18;4.32;;;3.08;;
50249;SDS011;36133;42.522;27.456;2023-03-23T00:21:46;5.47;;;3.42;;
50249;SDS011;36133;42.522;27.456;2023-03-23T00:24:13;3.80;;;3.28;;
50249;SDS011;36133;42.522;27.456;2023-03-23T00:26:47;3.72;;;3.15;;
50249;SDS011;36133;42.522;27.456;2023-03-23T00:31:45;3.33;;;2.70;;
50249;SDS011;36133;42.522;27.456;2023-03-23T00:34:21;5.28;;;3.33;;
50249;SDS011;36133;42.522;27.456;2023-03-23T00:36:53;4.80;;;3.28;;
50249;SDS011;36133;42.522;27.456;2023-03-23T00:39:22;3.80;;;3.10;;
50249;SDS011;36133;42.522;27.456;2023-03-23T00:41:49;4.57;;;3.53;;
50249;SDS011;36133;42.522;27.456;2023-03-23T00:44:15;3.75;;;2.88;;
50249;SDS011;36133;42.522;27.456;2023-03-23T00:46:44;4.82;;;2.90;;
50249;SDS011;36133;42.522;27.456;2023-03-23T00:49:29;4.43;;;3.00;;
50249;SDS011;36133;42.522;27.456;2023-03-23T00:51:55;4.78;;;3.38;;
50249;SDS011;36133;42.522;27.456;2023-03-23T00:54:23;5.80;;;3.35;;
50249;SDS011;36133;42.522;27.456;2023-03-23T00:56:49;5.07;;;3.28;;
50249;SDS011;36133;42.522;27.456;2023-03-23T00:59:15;3.47;;;3.00;;
50249;SDS011;36133;42.522;27.456;2023-03-23T01:01:41;4.40;;;3.17;;
50249;SDS011;36133;42.522;27.456;2023-03-23T01:04:08;7.28;;;3.03;;
50249;SDS011;36133;42.522;27.456;2023-03-23T01:06:37;3.90;;;3.03;;
50249;SDS011;36133;42.522;27.456;2023-03-23T01:09:09;5.30;;;3.15;;
50249;SDS011;36133;42.522;27.456;2023-03-23T01:11:45;3.40;;;2.88;;
50249;SDS011;36133;42.522;27.456;2023-03-23T01:14:13;3.10;;;2.70;;
50249;SDS011;36133;42.522;27.456;2023-03-23T01:16:40;4.00;;;2.80;;
50249;SDS011;36133;42.522;27.456;2023-03-23T01:19:06;6.70;;;2.78;;
50249;SDS011;36133;42.522;27.456;2023-03-23T01:21:31;4.00;;;2.90;;
50249;SDS011;36133;42.522;27.456;2023-03-23T01:23:57;2.72;;;2.35;;
50249;SDS011;36133;42.522;27.456;2023-03-23T01:26:31;3.78;;;2.70;;
50249;SDS011;36133;42.522;27.456;2023-03-23T01:28:57;3.42;;;2.72;;
50249;SDS011;36133;42.522;27.456;2023-03-23T01:31:23;4.35;;;3.00;;
50249;SDS011;36133;42.522;27.456;2023-03-23T01:33:51;6.00;;;3.30;;
50249;SDS011;36133;42.522;27.456;2023-03-23T01:36:22;5.10;;;3.22;;
50249;SDS011;36133;42.522;27.456;2023-03-23T01:38:51;4.18;;;2.90;;
50249;SDS011;36133;42.522;27.456;2023-03-23T01:41:20;5.70;;;2.90;;
50249;SDS011;36133;42.522;27.456;2023-03-23T01:43:56;3.75;;;3.05;;
50249;SDS011;36133;42.522;27.456;2023-03-23T01:46:26;4.45;;;3.08;;
50249;SDS011;36133;42.522;27.456;2023-03-23T01:48:53;5.93;;;3.30;;
50249;SDS011;36133;42.522;27.456;2023-03-23T01:51:20;4.05;;;3.03;;
50249;SDS011;36133;42.522;27.456;2023-03-23T01:54:06;4.55;;;3.08;;
50249;SDS011;36133;42.522;27.456;2023-03-23T01:56:41;5.30;;;3.67;;
50249;SDS011;36133;42.522;27.456;2023-03-23T01:59:12;7.55;;;3.70;;
50249;SDS011;36133;42.522;27.456;2023-03-23T02:01:40;5.03;;;3.83;;
50249;SDS011;36133;42.522;27.456;2023-03-23T02:04:10;6.30;;;4.07;;
50249;SDS011;36133;42.522;27.456;2023-03-23T02:06:38;4.53;;;3.45;;
50249;SDS011;36133;42.522;27.456;2023-03-23T02:09:06;6.63;;;3.97;;
50249;SDS011;36133;42.522;27.456;2023-03-23T02:11:32;5.88;;;4.30;;
50249;SDS011;36133;42.522;27.456;2023-03-23T02:13:58;7.15;;;5.10;;
50249;SDS011;36133;42.522;27.456;2023-03-23T02:16:30;7.00;;;4.93;;
50249;SDS011;36133;42.522;27.456;2023-03-23T02:27:17;11.75;;;6.55;;
50249;SDS011;36133;42.522;27.456;2023-03-23T02:35:12;12.35;;;8.25;;
50249;SDS011;36133;42.522;27.456;2023-03-23T02:40:17;13.00;;;9.23;;
50249;SDS011;36133;42.522;27.456;2023-03-23T02:42:55;17.77;;;8.98;;
50249;SDS011;36133;42.522;27.456;2023-03-23T02:45:24;13.80;;;9.20;;
50249;SDS011;36133;42.522;27.456;2023-03-23T02:47:53;15.55;;;8.95;;
50249;SDS011;36133;42.522;27.456;2023-03-23T02:50:20;12.65;;;8.93;;
50249;SDS011;36133;42.522;27.456;2023-03-23T02:52:48;12.82;;;8.52;;
50249;SDS011;36133;42.522;27.456;2023-03-23T02:55:18;13.70;;;8.32;;
50249;SDS011;36133;42.522;27.456;2023-03-23T02:57:46;17.75;;;9.57;;
50249;SDS011;36133;42.522;27.456;2023-03-23T03:00:14;13.48;;;8.35;;
50249;SDS011;36133;42.522;27.456;2023-03-23T03:02:43;12.13;;;8.60;;
50249;SDS011;36133;42.522;27.456;2023-03-23T03:10:58;11.10;;;7.60;;
50249;SDS011;36133;42.522;27.456;2023-03-23T03:16:21;12.85;;;8.77;;
50249;SDS011;36133;42.522;27.456;2023-03-23T03:21:56;17.58;;;9.90;;
50249;SDS011;36133;42.522;27.456;2023-03-23T03:24:24;16.02;;;10.50;;
50249;SDS011;36133;42.522;27.456;2023-03-23T03:26:52;16.73;;;11.18;;
50249;SDS011;36133;42.522;27.456;2023-03-23T03:29:25;19.88;;;12.18;;
50249;SDS011;36133;42.522;27.456;2023-03-23T03:31:56;19.13;;;11.48;;
50249;SDS011;36133;42.522;27.456;2023-03-23T03:34:24;19.48;;;11.30;;
50249;SDS011;36133;42.522;27.456;2023-03-23T03:36:51;22.80;;;12.65;;
50249;SDS011;36133;42.522;27.456;2023-03-23T03:39:20;18.35;;;10.48;;
50249;SDS011;36133;42.522;27.456;2023-03-23T03:41:46;17.73;;;11.43;;
50249;SDS011;36133;42.522;27.456;2023-03-23T03:44:13;13.38;;;8.35;;
50249;SDS011;36133;42.522;27.456;2023-03-23T03:46:39;14.63;;;7.70;;
50249;SDS011;36133;42.522;27.456;2023-03-23T03:49:05;15.07;;;8.05;;
50249;SDS011;36133;42.522;27.456;2023-03-23T03:51:33;14.02;;;8.20;;
50249;SDS011;36133;42.522;27.456;2023-03-23T03:54:00;13.30;;;8.40;;
50249;SDS011;36133;42.522;27.456;2023-03-23T03:56:25;13.82;;;9.27;;
50249;SDS011;36133;42.522;27.456;2023-03-23T03:58:51;18.33;;;10.07;;
50249;SDS011;36133;42.522;27.456;2023-03-23T04:01:17;16.02;;;8.52;;
50249;SDS011;36133;42.522;27.456;2023-03-23T04:03:46;15.45;;;9.43;;
50249;SDS011;36133;42.522;27.456;2023-03-23T04:06:12;13.50;;;8.15;;
50249;SDS011;36133;42.522;27.456;2023-03-23T04:08:37;16.05;;;9.65;;
50249;SDS011;36133;42.522;27.456;2023-03-23T04:11:04;16.15;;;10.43;;
50249;SDS011;36133;42.522;27.456;2023-03-23T04:13:30;15.63;;;9.23;;
50249;SDS011;36133;42.522;27.456;2023-03-23T04:15:55;15.38;;;9.15;;
50249;SDS011;36133;42.522;27.456;2023-03-23T04:18:21;14.27;;;9.05;;
50249;SDS011;36133;42.522;27.456;2023-03-23T04:20:50;11.95;;;8.75;;
50249;SDS011;36133;42.522;27.456;2023-03-23T04:23:17;17.35;;;8.85;;
50249;SDS011;36133;42.522;27.456;2023-03-23T04:25:47;13.45;;;7.72;;
50249;SDS011;36133;42.522;27.456;2023-03-23T04:28:14;9.15;;;6.60;;
50249;SDS011;36133;42.522;27.456;2023-03-23T04:30:43;13.18;;;6.78;;
50249;SDS011;36133;42.522;27.456;2023-03-23T04:33:10;9.55;;;6.55;;
50249;SDS011;36133;42.522;27.456;2023-03-23T04:35:41;10.55;;;7.30;;
50249;SDS011;36133;42.522;27.456;2023-03-23T04:38:11;13.60;;;7.50;;
50249;SDS011;36133;42.522;27.456;2023-03-23T04:40:39;14.48;;;8.88;;
50249;SDS011;36133;42.522;27.456;2023-03-23T04:43:05;18.13;;;9.98;;
50249;SDS011;36133;42.522;27.456;2023-03-23T04:45:34;18.23;;;9.70;;
50249;SDS011;36133;42.522;27.456;2023-03-23T04:48:03;21.00;;;10.90;;
50249;SDS011;36133;42.522;27.456;2023-03-23T04:50:30;20.33;;;11.25;;
50249;SDS011;36133;42.522;27.456;2023-03-23T04:53:00;17.10;;;11.20;;
50249;SDS011;36133;42.522;27.456;2023-03-23T04:55:30;17.58;;;10.30;;
50249;SDS011;36133;42.522;27.456;2023-03-23T04:58:01;17.92;;;11.50;;
50249;SDS011;36133;42.522;27.456;2023-03-23T05:00:27;25.80;;;11.82;;
50249;SDS011;36133;42.522;27.456;2023-03-23T05:02:53;23.73;;;12.40;;
50249;SDS011;36133;42.522;27.456;2023-03-23T05:05:21;22.17;;;12.88;;
50249;SDS011;36133;42.522;27.456;2023-03-23T05:07:48;25.83;;;12.85;;
50249;SDS011;36133;42.522;27.456;2023-03-23T05:10:14;22.83;;;12.32;;
50249;SDS011;36133;42.522;27.456;2023-03-23T05:12:40;21.95;;;12.32;;
50249;SDS011;36133;42.522;27.456;2023-03-23T05:15:07;19.58;;;11.20;;
50249;SDS011;36133;42.522;27.456;2023-03-23T05:17:33;23.58;;;12.43;;
50249;SDS011;36133;42.522;27.456;2023-03-23T05:20:00;39.53;;;21.38;;
50249;SDS011;36133;42.522;27.456;2023-03-23T05:22:26;33.08;;;19.13;;
50249;SDS011;36133;42.522;27.456;2023-03-23T05:24:52;46.25;;;23.02;;
50249;SDS011;36133;42.522;27.456;2023-03-23T05:27:18;45.17;;;25.23;;
50249;SDS011;36133;42.522;27.456;2023-03-23T05:29:45;35.42;;;21.33;;
50249;SDS011;36133;42.522;27.456;2023-03-23T05:32:14;40.15;;;21.98;;
50249;SDS011;36133;42.522;27.456;2023-03-23T05:34:44;32.25;;;16.27;;
50249;SDS011;36133;42.522;27.456;2023-03-23T05:37:11;21.40;;;10.40;;
50249;SDS011;36133;42.522;27.456;2023-03-23T05:39:37;23.45;;;13.63;;
50249;SDS011;36133;42.522;27.456;2023-03-23T05:42:03;16.40;;;8.85;;
50249;SDS011;36133;42.522;27.456;2023-03-23T05:44:29;22.92;;;12.65;;
50249;SDS011;36133;42.522;27.456;2023-03-23T05:46:55;22.33;;;13.73;;
50249;SDS011;36133;42.522;27.456;2023-03-23T05:49:20;24.92;;;14.07;;
50249;SDS011;36133;42.522;27.456;2023-03-23T05:51:46;22.88;;;13.63;;
50249;SDS011;36133;42.522;27.456;2023-03-23T05:54:12;21.15;;;13.70;;
50249;SDS011;36133;42.522;27.456;2023-03-23T05:56:39;24.60;;;14.15;;
50249;SDS011;36133;42.522;27.456;2023-03-23T05:59:05;27.30;;;15.82;;
50249;SDS011;36133;42.522;27.456;2023-03-23T06:01:31;23.98;;;15.13;;
50249;SDS011;36133;42.522;27.456;2023-03-23T06:03:57;31.30;;;16.13;;
50249;SDS011;36133;42.522;27.456;2023-03-23T06:06:24;24.90;;;15.85;;
50249;SDS011;36133;42.522;27.456;2023-03-23T06:08:50;24.77;;;14.73;;
50249;SDS011;36133;42.522;27.456;2023-03-23T06:11:16;25.27;;;14.57;;
50249;SDS011;36133;42.522;27.456;2023-03-23T06:13:42;26.88;;;15.15;;
50249;SDS011;36133;42.522;27.456;2023-03-23T06:16:09;27.30;;;16.52;;
50249;SDS011;36133;42.522;27.456;2023-03-23T06:18:35;25.67;;;15.30;;
50249;SDS011;36133;42.522;27.456;2023-03-23T06:21:02;24.67;;;15.05;;
50249;SDS011;36133;42.522;27.456;2023-03-23T06:23:29;31.08;;;16.92;;
50249;SDS011;36133;42.522;27.456;2023-03-23T06:26:00;34.67;;;18.55;;
50249;SDS011;36133;42.522;27.456;2023-03-23T06:28:30;34.97;;;20.17;;
50249;SDS011;36133;42.522;27.456;2023-03-23T06:31:00;44.90;;;21.45;;
50249;SDS011;36133;42.522;27.456;2023-03-23T06:33:34;36.23;;;21.97;;
50249;SDS011;36133;42.522;27.456;2023-03-23T06:36:01;45.83;;;24.55;;
50249;SDS011;36133;42.522;27.456;2023-03-23T06:38:27;45.55;;;25.70;;
50249;SDS011;36133;42.522;27.456;2023-03-23T06:40:53;45.13;;;26.35;;
50249;SDS011;36133;42.522;27.456;2023-03-23T06:43:19;49.22;;;26.77;;
50249;SDS011;36133;42.522;27.456;2023-03-23T06:45:44;53.25;;;27.63;;
50249;SDS011;36133;42.522;27.456;2023-03-23T06:48:10;52.15;;;29.20;;
50249;SDS011;36133;42.522;27.456;2023-03-23T06:50:36;47.28;;;26.10;;
50249;SDS011;36133;42.522;27.456;2023-03-23T06:53:01;39.97;;;22.73;;
50249;SDS011;36133;42.522;27.456;2023-03-23T06:55:27;40.72;;;23.00;;
50249;SDS011;36133;42.522;27.456;2023-03-23T06:57:52;42.45;;;23.08;;
50249;SDS011;36133;42.522;27.456;2023-03-23T07:00:18;36.63;;;20.17;;
50249;SDS011;36133;42.522;27.456;2023-03-23T07:02:43;28.50;;;14.45;;
50249;SDS011;36133;42.522;27.456;2023-03-23T07:05:10;28.88;;;14.55;;
50249;SDS011;36133;42.522;27.456;2023-03-23T07:07:37;27.30;;;16.52;;
50249;SDS011;36133;42.522;27.456;2023-03-23T07:10:05;29.95;;;15.10;;
50249;SDS011;36133;42.522;27.456;2023-03-23T07:12:33;34.67;;;17.63;;
50249;SDS011;36133;42.522;27.456;2023-03-23T07:15:01;35.95;;;16.23;;
50249;SDS011;36133;42.522;27.456;2023-03-23T07:17:27;27.60;;;15.40;;
50249;SDS011;36133;42.522;27.456;2023-03-23T07:19:53;29.35;;;16.35;;
50249;SDS011;36133;42.522;27.456;2023-03-23T07:22:19;37.42;;;19.27;;
50249;SDS011;36133;42.522;27.456;2023-03-23T07:24:46;37.42;;;19.02;;
50249;SDS011;36133;42.522;27.456;2023-03-23T07:27:11;32.78;;;19.67;;
50249;SDS011;36133;42.522;27.456;2023-03-23T07:29:37;36.95;;;19.27;;
50249;SDS011;36133;42.522;27.456;2023-03-23T07:32:44;36.80;;;17.65;;
50249;SDS011;36133;42.522;27.456;2023-03-23T07:35:31;31.67;;;17.33;;
50249;SDS011;36133;42.522;27.456;2023-03-23T07:38:21;33.30;;;16.98;;
50249;SDS011;36133;42.522;27.456;2023-03-23T07:40:52;31.85;;;17.65;;
50249;SDS011;36133;42.522;27.456;2023-03-23T07:43:43;36.83;;;19.55;;
50249;SDS011;36133;42.522;27.456;2023-03-23T07:46:18;51.28;;;29.23;;
50249;SDS011;36133;42.522;27.456;2023-03-23T07:49:28;60.53;;;34.00;;
50249;SDS011;36133;42.522;27.456;2023-03-23T07:51:58;46.33;;;25.27;;
50249;SDS011;36133;42.522;27.456;2023-03-23T07:54:39;33.17;;;18.13;;
50249;SDS011;36133;42.522;27.456;2023-03-23T07:57:11;29.10;;;14.05;;
50249;SDS011;36133;42.522;27.456;2023-03-23T07:59:42;24.75;;;13.40;;
50249;SDS011;36133;42.522;27.456;2023-03-23T08:02:11;19.23;;;10.13;;
50249;SDS011;36133;42.522;27.456;2023-03-23T08:04:37;17.67;;;8.38;;
50249;SDS011;36133;42.522;27.456;2023-03-23T08:07:03;14.45;;;8.43;;
50249;SDS011;36133;42.522;27.456;2023-03-23T08:09:31;18.50;;;8.95;;
50249;SDS011;36133;42.522;27.456;2023-03-23T08:11:57;14.98;;;8.10;;
50249;SDS011;36133;42.522;27.456;2023-03-23T08:14:23;13.65;;;7.47;;
50249;SDS011;36133;42.522;27.456;2023-03-23T08:16:52;13.82;;;8.00;;
50249;SDS011;36133;42.522;27.456;2023-03-23T08:19:23;23.00;;;9.98;;
50249;SDS011;36133;42.522;27.456;2023-03-23T08:21:49;13.32;;;7.63;;
50249;SDS011;36133;42.522;27.456;2023-03-23T08:24:15;14.98;;;6.90;;
50249;SDS011;36133;42.522;27.456;2023-03-23T08:26:48;34.15;;;10.27;;
50249;SDS011;36133;42.522;27.456;2023-03-23T08:29:14;14.88;;;8.35;;
50249;SDS011;36133;42.522;27.456;2023-03-23T08:31:41;23.83;;;9.02;;
50249;SDS011;36133;42.522;27.456;2023-03-23T08:34:06;10.02;;;6.90;;
50249;SDS011;36133;42.522;27.456;2023-03-23T08:36:33;14.95;;;7.35;;
50249;SDS011;36133;42.522;27.456;2023-03-23T08:38:59;12.57;;;6.20;;
50249;SDS011;36133;42.522;27.456;2023-03-23T08:41:25;18.75;;;7.63;;
50249;SDS011;36133;42.522;27.456;2023-03-23T08:43:52;11.25;;;5.97;;
50249;SDS011;36133;42.522;27.456;2023-03-23T08:46:20;11.65;;;5.57;;
50249;SDS011;36133;42.522;27.456;2023-03-23T08:48:46;10.57;;;4.85;;
50249;SDS011;36133;42.522;27.456;2023-03-23T08:51:15;12.02;;;5.20;;
50249;SDS011;36133;42.522;27.456;2023-03-23T08:53:43;8.52;;;4.68;;
50249;SDS011;36133;42.522;27.456;2023-03-23T08:56:12;9.77;;;3.72;;
50249;SDS011;36133;42.522;27.456;2023-03-23T08:58:38;8.57;;;3.80;;
50249;SDS011;36133;42.522;27.456;2023-03-23T09:01:10;10.60;;;3.85;;
50249;SDS011;36133;42.522;27.456;2023-03-23T09:03:43;6.65;;;3.00;;
50249;SDS011;36133;42.522;27.456;2023-03-23T09:06:13;6.22;;;2.97;;
50249;SDS011;36133;42.522;27.456;2023-03-23T09:12:01;7.80;;;3.13;;
50249;SDS011;36133;42.522;27.456;2023-03-23T09:14:27;6.88;;;2.40;;
50249;SDS011;36133;42.522;27.456;2023-03-23T09:16:58;5.05;;;2.22;;
50249;SDS011;36133;42.522;27.456;2023-03-23T09:19:33;4.75;;;2.45;;
50249;SDS011;36133;42.522;27.456;2023-03-23T09:22:00;6.57;;;2.38;;
50249;SDS011;36133;42.522;27.456;2023-03-23T09:24:26;3.72;;;1.90;;
50249;SDS011;36133;42.522;27.456;2023-03-23T09:26:52;5.07;;;2.67;;
50249;SDS011;36133;42.522;27.456;2023-03-23T09:29:21;3.03;;;1.90;;
50249;SDS011;36133;42.522;27.456;2023-03-23T09:31:47;4.75;;;2.00;;
50249;SDS011;36133;42.522;27.456;2023-03-23T09:34:28;2.78;;;1.48;;
50249;SDS011;36133;42.522;27.456;2023-03-23T09:36:54;5.32;;;2.63;;
50249;SDS011;36133;42.522;27.456;2023-03-23T09:39:27;2.40;;;1.25;;
50249;SDS011;36133;42.522;27.456;2023-03-23T09:50:32;2.42;;;1.80;;
50249;SDS011;36133;42.522;27.456;2023-03-23T09:53:12;3.67;;;1.70;;
50249;SDS011;36133;42.522;27.456;2023-03-23T09:55:46;9.05;;;3.15;;
50249;SDS011;36133;42.522;27.456;2023-03-23T10:01:11;3.65;;;2.50;;
50249;SDS011;36133;42.522;27.456;2023-03-23T10:07:08;4.15;;;2.40;;
50249;SDS011;36133;42.522;27.456;2023-03-23T10:09:59;4.75;;;2.08;;
50249;SDS011;36133;42.522;27.456;2023-03-23T10:15:23;4.88;;;1.52;;
50249;SDS011;36133;42.522;27.456;2023-03-23T10:18:10;4.82;;;2.10;;
50249;SDS011;36133;42.522;27.456;2023-03-23T10:21:01;3.97;;;1.92;;
50249;SDS011;36133;42.522;27.456;2023-03-23T10:23:43;7.57;;;2.67;;
50249;SDS011;36133;42.522;27.456;2023-03-23T10:28:51;6.38;;;2.55;;
50249;SDS011;36133;42.522;27.456;2023-03-23T10:31:22;8.27;;;2.63;;
50249;SDS011;36133;42.522;27.456;2023-03-23T10:33:55;9.20;;;4.28;;
50249;SDS011;36133;42.522;27.456;2023-03-23T10:36:29;4.03;;;2.13;;
50249;SDS011;36133;42.522;27.456;2023-03-23T10:41:56;7.40;;;2.90;;
50249;SDS011;36133;42.522;27.456;2023-03-23T10:44:27;6.45;;;3.30;;
50249;SDS011;36133;42.522;27.456;2023-03-23T10:46:59;5.82;;;2.92;;
50249;SDS011;36133;42.522;27.456;2023-03-23T10:49:39;5.30;;;3.22;;
50249;SDS011;36133;42.522;27.456;2023-03-23T10:52:30;3.25;;;2.00;;
50249;SDS011;36133;42.522;27.456;2023-03-23T11:00:40;7.63;;;4.57;;
50249;SDS011;36133;42.522;27.456;2023-03-23T11:03:27;8.18;;;3.75;;
50249;SDS011;36133;42.522;27.456;2023-03-23T11:06:48;7.53;;;4.10;;
50249;SDS011;36133;42.522;27.456;2023-03-23T11:09:08;5.70;;;3.40;;
50249;SDS011;36133;42.522;27.456;2023-03-23T11:11:49;4.95;;;3.22;;
50249;SDS011;36133;42.522;27.456;2023-03-23T11:14:35;9.07;;;4.15;;
50249;SDS011;36133;42.522;27.456;2023-03-23T11:17:25;13.15;;;6.05;;
50249;SDS011;36133;42.522;27.456;2023-03-23T11:23:11;9.48;;;4.50;;
50249;SDS011;36133;42.522;27.456;2023-03-23T11:29:03;4.63;;;2.45;;
50249;SDS011;36133;42.522;27.456;2023-03-23T11:31:49;5.43;;;2.33;;
50249;SDS011;36133;42.522;27.456;2023-03-23T11:34:33;5.28;;;2.60;;
50249;SDS011;36133;42.522;27.456;2023-03-23T11:39:47;7.30;;;2.38;;
50249;SDS011;36133;42.522;27.456;2023-03-23T11:42:20;5.55;;;2.17;;
50249;SDS011;36133;42.522;27.456;2023-03-23T11:44:46;4.28;;;2.30;;
50249;SDS011;36133;42.522;27.456;2023-03-23T11:47:34;6.95;;;2.58;;
50249;SDS011;36133;42.522;27.456;2023-03-23T11:50:24;8.05;;;3.45;;
50249;SDS011;36133;42.522;27.456;2023-03-23T11:53:31;4.55;;;2.17;;
50249;SDS011;36133;42.522;27.456;2023-03-23T11:56:19;5.15;;;2.65;;
50249;SDS011;36133;42.522;27.456;2023-03-23T11:59:10;8.60;;;2.60;;
50249;SDS011;36133;42.522;27.456;2023-03-23T12:01:59;3.20;;;1.98;;
50249;SDS011;36133;42.522;27.456;2023-03-23T12:04:40;5.63;;;2.80;;
50249;SDS011;36133;42.522;27.456;2023-03-23T12:10:32;6.10;;;2.85;;
50249;SDS011;36133;42.522;27.456;2023-03-23T12:35:14;8.73;;;4.82;;
50249;SDS011;36133;42.522;27.456;2023-03-23T12:46:29;6.30;;;3.72;;
50249;SDS011;36133;42.522;27.456;2023-03-23T12:55:16;8.75;;;3.50;;
50249;SDS011;36133;42.522;27.456;2023-03-23T12:57:49;8.18;;;3.80;;
50249;SDS011;36133;42.522;27.456;2023-03-23T13:00:46;8.48;;;4.63;;
50249;SDS011;36133;42.522;27.456;2023-03-23T13:06:13;5.85;;;3.30;;
50249;SDS011;36133;42.522;27.456;2023-03-23T13:11:40;3.70;;;2.60;;
50249;SDS011;36133;42.522;27.456;2023-03-23T13:17:24;8.57;;;4.22;;
50249;SDS011;36133;42.522;27.456;2023-03-23T13:26:17;4.50;;;3.30;;
50249;SDS011;36133;42.522;27.456;2023-03-23T13:28:55;5.43;;;2.75;;
50249;SDS011;36133;42.522;27.456;2023-03-23T13:31:45;8.38;;;2.95;;
50249;SDS011;36133;42.522;27.456;2023-03-23T13:34:23;7.72;;;3.10;;
50249;SDS011;36133;42.522;27.456;2023-03-23T13:39:30;5.53;;;2.80;;
50249;SDS011;36133;42.522;27.456;2023-03-23T13:44:56;6.03;;;3.10;;
50249;SDS011;36133;42.522;27.456;2023-03-23T13:47:37;11.77;;;3.20;;
50249;SDS011;36133;42.522;27.456;2023-03-23T14:04:10;4.97;;;2.58;;
50249;SDS011;36133;42.522;27.456;2023-03-23T14:07:09;3.25;;;2.50;;
50249;SDS011;36133;42.522;27.456;2023-03-23T14:09:44;6.22;;;2.90;;
50249;SDS011;36133;42.522;27.456;2023-03-23T14:12:22;6.38;;;2.40;;
50249;SDS011;36133;42.522;27.456;2023-03-23T14:15:02;9.60;;;3.40;;
50249;SDS011;36133;42.522;27.456;2023-03-23T14:17:40;9.85;;;3.05;;
50249;SDS011;36133;42.522;27.456;2023-03-23T14:20:19;6.20;;;3.40;;
50249;SDS011;36133;42.522;27.456;2023-03-23T14:23:16;5.70;;;2.63;;
50249;SDS011;36133;42.522;27.456;2023-03-23T14:28:45;8.23;;;2.72;;
50249;SDS011;36133;42.522;27.456;2023-03-23T14:31:18;4.38;;;2.80;;
50249;SDS011;36133;42.522;27.456;2023-03-23T14:33:46;8.55;;;3.22;;
50249;SDS011;36133;42.522;27.456;2023-03-23T14:36:13;5.50;;;3.72;;
50249;SDS011;36133;42.522;27.456;2023-03-23T14:38:47;8.20;;;3.90;;
50249;SDS011;36133;42.522;27.456;2023-03-23T14:41:20;14.40;;;6.07;;
50249;SDS011;36133;42.522;27.456;2023-03-23T14:43:46;22.83;;;6.57;;
50249;SDS011;36133;42.522;27.456;2023-03-23T14:46:27;15.00;;;6.95;;
50249;SDS011;36133;42.522;27.456;2023-03-23T14:51:54;18.75;;;6.60;;
50249;SDS011;36133;42.522;27.456;2023-03-23T14:54:27;13.90;;;7.40;;
50249;SDS011;36133;42.522;27.456;2023-03-23T14:56:54;13.60;;;6.40;;
50249;SDS011;36133;42.522;27.456;2023-03-23T14:59:21;12.32;;;5.75;;
50249;SDS011;36133;42.522;27.456;2023-03-23T15:04:56;14.55;;;5.72;;
50249;SDS011;36133;42.522;27.456;2023-03-23T15:07:46;19.50;;;5.53;;
50249;SDS011;36133;42.522;27.456;2023-03-23T15:10:17;12.98;;;4.85;;
50249;SDS011;36133;42.522;27.456;2023-03-23T15:12:46;9.02;;;4.90;;
50249;SDS011;36133;42.522;27.456;2023-03-23T15:15:27;15.48;;;5.45;;
50249;SDS011;36133;42.522;27.456;2023-03-23T15:17:57;9.35;;;4.55;;
50249;SDS011;36133;42.522;27.456;2023-03-23T15:20:47;14.85;;;4.93;;
50249;SDS011;36133;42.522;27.456;2023-03-23T15:23:26;11.20;;;5.15;;
50249;SDS011;36133;42.522;27.456;2023-03-23T15:29:27;9.90;;;4.10;;
50249;SDS011;36133;42.522;27.456;2023-03-23T15:32:03;8.30;;;4.13;;
50249;SDS011;36133;42.522;27.456;2023-03-23T15:34:44;8.52;;;4.70;;
50249;SDS011;36133;42.522;27.456;2023-03-23T15:37:36;10.50;;;3.90;;
50249;SDS011;36133;42.522;27.456;2023-03-23T15:40:37;19.33;;;5.05;;
50249;SDS011;36133;42.522;27.456;2023-03-23T15:45:58;11.10;;;5.13;;
50249;SDS011;36133;42.522;27.456;2023-03-23T15:48:32;9.00;;;5.45;;
50249;SDS011;36133;42.522;27.456;2023-03-23T15:51:20;10.40;;;5.47;;
50249;SDS011;36133;42.522;27.456;2023-03-23T15:53:53;9.95;;;5.97;;
50249;SDS011;36133;42.522;27.456;2023-03-23T15:56:23;8.80;;;6.00;;
50249;SDS011;36133;42.522;27.456;2023-03-23T15:58:52;15.68;;;6.03;;
50249;SDS011;36133;42.522;27.456;2023-03-23T16:01:24;12.45;;;6.47;;
50249;SDS011;36133;42.522;27.456;2023-03-23T16:06:50;11.00;;;6.10;;
50249;SDS011;36133;42.522;27.456;2023-03-23T16:09:23;10.88;;;5.68;;
50249;SDS011;36133;42.522;27.456;2023-03-23T16:11:50;8.38;;;6.03;;
50249;SDS011;36133;42.522;27.456;2023-03-23T16:14:19;15.05;;;7.47;;
50249;SDS011;36133;42.522;27.456;2023-03-23T16:16:54;13.40;;;6.82;;
50249;SDS011;36133;42.522;27.456;2023-03-23T16:19:25;14.60;;;7.05;;
50249;SDS011;36133;42.522;27.456;2023-03-23T16:21:55;13.82;;;7.38;;
50249;SDS011;36133;42.522;27.456;2023-03-23T16:24:24;17.02;;;9.07;;
50249;SDS011;36133;42.522;27.456;2023-03-23T16:26:50;19.45;;;9.07;;
50249;SDS011;36133;42.522;27.456;2023-03-23T16:29:16;20.25;;;9.65;;
50249;SDS011;36133;42.522;27.456;2023-03-23T16:31:42;19.55;;;10.65;;
50249;SDS011;36133;42.522;27.456;2023-03-23T16:34:08;17.50;;;9.80;;
50249;SDS011;36133;42.522;27.456;2023-03-23T16:36:34;19.42;;;10.68;;
50249;SDS011;36133;42.522;27.456;2023-03-23T16:39:02;19.77;;;10.90;;
50249;SDS011;36133;42.522;27.456;2023-03-23T16:41:31;24.02;;;11.07;;
50249;SDS011;36133;42.522;27.456;2023-03-23T16:44:02;25.75;;;11.50;;
50249;SDS011;36133;42.522;27.456;2023-03-23T16:46:34;23.33;;;9.80;;
50249;SDS011;36133;42.522;27.456;2023-03-23T16:49:06;20.30;;;11.27;;
50249;SDS011;36133;42.522;27.456;2023-03-23T16:51:31;23.00;;;10.27;;
50249;SDS011;36133;42.522;27.456;2023-03-23T16:53:57;17.50;;;9.70;;
50249;SDS011;36133;42.522;27.456;2023-03-23T16:56:31;14.57;;;8.05;;
50249;SDS011;36133;42.522;27.456;2023-03-23T16:58:59;17.17;;;9.52;;
50249;SDS011;36133;42.522;27.456;2023-03-23T17:01:28;15.35;;;8.48;;
50249;SDS011;36133;42.522;27.456;2023-03-23T17:04:00;12.32;;;7.70;;
50249;SDS011;36133;42.522;27.456;2023-03-23T17:06:29;11.63;;;5.60;;
50249;SDS011;36133;42.522;27.456;2023-03-23T17:08:55;23.60;;;10.23;;
50249;SDS011;36133;42.522;27.456;2023-03-23T17:11:20;12.18;;;8.05;;
50249;SDS011;36133;42.522;27.456;2023-03-23T17:13:47;13.30;;;8.13;;
50249;SDS011;36133;42.522;27.456;2023-03-23T17:16:13;20.00;;;10.68;;
50249;SDS011;36133;42.522;27.456;2023-03-23T17:18:38;17.58;;;10.52;;
50249;SDS011;36133;42.522;27.456;2023-03-23T17:21:26;23.80;;;12.55;;
50249;SDS011;36133;42.522;27.456;2023-03-23T17:24:04;29.88;;;14.23;;
50249;SDS011;36133;42.522;27.456;2023-03-23T17:26:35;26.80;;;12.52;;
50249;SDS011;36133;42.522;27.456;2023-03-23T17:29:01;25.42;;;12.60;;
50249;SDS011;36133;42.522;27.456;2023-03-23T17:31:37;20.15;;;12.80;;
50249;SDS011;36133;42.522;27.456;2023-03-23T17:34:10;22.38;;;11.52;;
50249;SDS011;36133;42.522;27.456;2023-03-23T17:36:35;21.77;;;10.77;;